createdAt,value
2023-02-28T00:01:28.409Z,46.69
2023-02-28T00:04:01.388Z,47.13
2023-02-28T00:06:28.836Z,47.01
2023-02-28T00:08:56.765Z,46.23
2023-02-28T00:11:24.433Z,46.41
2023-02-28T00:13:52.032Z,45.51
2023-02-28T00:16:22.191Z,46.09
2023-02-28T00:18:50.026Z,46.11
2023-02-28T00:21:18.860Z,45.79
2023-02-28T00:23:46.689Z,45.67
2023-02-28T00:26:15.427Z,46.56
2023-02-28T00:28:43.530Z,46.56
2023-02-28T00:31:11.323Z,46.08
2023-02-28T00:33:38.780Z,46.32
2023-02-28T00:36:08.580Z,46.08
2023-02-28T00:38:38.228Z,46.17
2023-02-28T00:41:06.026Z,45.49
2023-02-28T00:43:35.448Z,44.77
2023-02-28T00:46:03.804Z,44.86
2023-02-28T00:48:31.810Z,45.57
2023-02-28T00:50:59.320Z,45.39
2023-02-28T00:53:27.280Z,44.92
2023-02-28T00:55:54.781Z,43.82
2023-02-28T00:58:22.473Z,43.40
2023-02-28T01:00:50.561Z,43.71
2023-02-28T01:03:19.015Z,44.58
2023-02-28T01:05:47.408Z,46.50
2023-02-28T01:08:15.882Z,47.12
2023-02-28T01:10:43.744Z,47.07
2023-02-28T01:13:12.189Z,46.67
2023-02-28T01:15:43.532Z,46.37
2023-02-28T01:18:12.036Z,46.26
2023-02-28T01:20:39.734Z,46.79
2023-02-28T01:23:07.310Z,46.93
2023-02-28T01:25:36.495Z,46.87
2023-02-28T01:28:06.848Z,46.53
2023-02-28T01:30:36.782Z,46.67
2023-02-28T01:33:04.419Z,46.76
2023-02-28T01:35:36.130Z,46.53
2023-02-28T01:38:20.499Z,46.73
2023-02-28T01:40:49.067Z,46.88
2023-02-28T01:43:26.856Z,46.74
2023-02-28T01:45:57.632Z,46.15
2023-02-28T01:48:32.636Z,46.03
2023-02-28T01:51:06.240Z,46.11
2023-02-28T01:53:37.486Z,46.84
2023-02-28T01:56:07.248Z,46.83
2023-02-28T01:58:35.486Z,47.20
2023-02-28T02:01:04.040Z,46.92
2023-02-28T02:03:32.348Z,46.92
2023-02-28T02:05:59.725Z,46.67
2023-02-28T02:08:29.403Z,46.36
2023-02-28T02:10:59.561Z,46.23
2023-02-28T02:14:01.302Z,45.84
2023-02-28T02:16:37.860Z,45.83
2023-02-28T02:19:15.655Z,45.12
2023-02-28T02:22:03.740Z,45.27
2023-02-28T02:24:50.494Z,45.25
2023-02-28T02:27:19.304Z,44.96
2023-02-28T02:30:23.422Z,44.82
2023-02-28T02:33:30.130Z,44.77
2023-02-28T02:36:28.844Z,45.97
2023-02-28T02:38:56.435Z,46.83
2023-02-28T02:41:39.202Z,46.75
2023-02-28T02:44:16.035Z,46.96
2023-02-28T02:46:48.684Z,46.23
2023-02-28T02:49:21.480Z,44.67
2023-02-28T02:51:49.512Z,42.16
2023-02-28T02:54:32.818Z,41.67
2023-02-28T02:57:12.932Z,41.35
2023-02-28T02:59:43.630Z,41.13
2023-02-28T03:02:14.033Z,40.93
2023-02-28T03:04:44.921Z,40.98
2023-02-28T03:07:14.381Z,41.42
2023-02-28T03:09:42.394Z,40.35
2023-02-28T03:12:13.304Z,40.79
2023-02-28T03:14:58.768Z,41.02
2023-02-28T03:18:05.161Z,40.06
2023-02-28T03:20:35.497Z,41.37
2023-02-28T03:23:12.113Z,40.95
2023-02-28T03:25:45.223Z,40.19
2023-02-28T03:28:34.186Z,40.36
2023-02-28T03:31:11.132Z,40.41
2023-02-28T03:34:06.019Z,41.17
2023-02-28T03:36:46.829Z,40.74
2023-02-28T03:39:24.702Z,39.99
2023-02-28T03:42:23.464Z,40.92
2023-02-28T03:44:58.682Z,40.68
2023-02-28T03:47:40.641Z,40.92
2023-02-28T03:50:08.736Z,41.02
2023-02-28T03:52:39.590Z,40.04
2023-02-28T03:55:11.188Z,40.62
2023-02-28T03:57:44.861Z,40.99
2023-02-28T04:00:29.402Z,40.98
2023-02-28T04:02:57.506Z,41.25
2023-02-28T04:05:25.220Z,40.68
2023-02-28T04:07:52.785Z,41.36
2023-02-28T04:10:20.867Z,41.76
2023-02-28T04:12:48.368Z,41.33
2023-02-28T04:15:16.073Z,41.88
2023-02-28T04:17:43.964Z,41.30
2023-02-28T04:20:12.668Z,41.49
2023-02-28T04:22:40.132Z,40.98
2023-02-28T04:25:08.451Z,41.43
2023-02-28T04:27:36.091Z,41.29
2023-02-28T04:30:03.989Z,40.83
2023-02-28T04:32:31.724Z,41.81
2023-02-28T04:34:59.293Z,41.38
2023-02-28T04:37:29.804Z,41.42
2023-02-28T04:39:57.570Z,41.91
2023-02-28T04:42:24.967Z,41.72
2023-02-28T04:44:52.392Z,41.27
2023-02-28T04:47:20.204Z,41.63
2023-02-28T04:49:47.806Z,41.07
2023-02-28T04:52:15.291Z,41.06
2023-02-28T04:54:42.949Z,41.64
2023-02-28T04:57:11.325Z,41.52
2023-02-28T04:59:38.812Z,41.12
2023-02-28T05:02:08.188Z,40.38
2023-02-28T05:04:35.896Z,40.83
2023-02-28T05:07:04.222Z,40.65
2023-02-28T05:09:33.934Z,40.68
2023-02-28T05:12:01.383Z,41.10
2023-02-28T05:14:28.873Z,40.93
2023-02-28T05:16:56.598Z,41.05
2023-02-28T05:19:24.027Z,41.04
2023-02-28T05:21:53.826Z,40.60
2023-02-28T05:24:23.934Z,39.81
2023-02-28T05:26:54.174Z,40.51
2023-02-28T05:29:26.417Z,41.49
2023-02-28T05:31:54.152Z,41.26
2023-02-28T05:34:21.971Z,41.38
2023-02-28T05:36:49.494Z,41.35
2023-02-28T05:39:16.903Z,40.68
2023-02-28T05:41:45.043Z,40.63
2023-02-28T05:44:13.531Z,40.84
2023-02-28T05:46:41.227Z,41.14
2023-02-28T05:49:09.197Z,42.20
2023-02-28T05:51:37.435Z,42.02
2023-02-28T05:54:05.056Z,42.13
2023-02-28T05:56:33.393Z,42.04
2023-02-28T05:59:00.851Z,41.65
2023-02-28T06:01:40.484Z,41.48
2023-02-28T06:04:19.450Z,41.32
2023-02-28T06:06:50.840Z,41.59
2023-02-28T06:09:21.982Z,41.14
2023-02-28T06:11:49.379Z,39.14
2023-02-28T06:14:18.925Z,39.22
2023-02-28T06:16:46.794Z,39.00
2023-02-28T06:19:14.637Z,38.74
2023-02-28T06:21:42.366Z,38.83
2023-02-28T06:24:10.447Z,38.66
2023-02-28T06:26:37.885Z,38.64
2023-02-28T06:29:05.303Z,39.25
2023-02-28T06:31:33.579Z,40.08
2023-02-28T06:34:01.170Z,40.80
2023-02-28T06:36:28.738Z,40.54
2023-02-28T06:38:57.130Z,39.78
2023-02-28T06:41:26.461Z,38.49
2023-02-28T06:43:54.677Z,39.81
2023-02-28T06:46:22.827Z,38.06
2023-02-28T06:48:50.678Z,37.68
2023-02-28T06:51:21.436Z,38.24
2023-02-28T06:53:49.568Z,38.62
2023-02-28T06:56:18.118Z,41.87
2023-02-28T06:58:50.859Z,38.72
2023-02-28T07:01:20.090Z,37.75
2023-02-28T07:03:47.951Z,38.17
2023-02-28T07:06:15.419Z,41.42
2023-02-28T07:08:43.320Z,41.32
2023-02-28T07:11:10.774Z,41.32
2023-02-28T07:13:38.212Z,40.45
2023-02-28T07:16:08.871Z,38.79
2023-02-28T07:18:37.063Z,38.13
2023-02-28T07:21:06.054Z,39.05
2023-02-28T07:23:33.800Z,39.61
2023-02-28T07:26:01.331Z,41.45
2023-02-28T07:28:28.965Z,40.07
2023-02-28T07:30:56.926Z,36.38
2023-02-28T07:33:25.141Z,38.70
2023-02-28T07:35:52.871Z,37.17
2023-02-28T07:38:20.744Z,36.77
2023-02-28T07:40:48.348Z,38.70
2023-02-28T07:43:15.862Z,38.08
2023-02-28T07:45:43.613Z,39.11
2023-02-28T07:48:11.177Z,36.18
2023-02-28T07:50:38.877Z,38.32
2023-02-28T07:53:06.779Z,37.04
2023-02-28T07:58:13.551Z,36.32
2023-02-28T08:00:41.471Z,36.32
2023-02-28T08:03:13.503Z,36.53
2023-02-28T08:05:41.549Z,35.40
2023-02-28T08:08:09.611Z,35.05
2023-02-28T08:10:37.792Z,37.87
2023-02-28T08:13:05.343Z,37.83
2023-02-28T08:15:33.245Z,37.43
2023-02-28T08:18:00.951Z,37.38
2023-02-28T08:20:28.519Z,37.63
2023-02-28T08:22:56.153Z,38.51
2023-02-28T08:25:23.481Z,37.23
2023-02-28T08:27:52.987Z,37.93
2023-02-28T08:30:20.707Z,37.70
2023-02-28T08:32:48.188Z,37.95
2023-02-28T08:35:15.757Z,38.00
2023-02-28T08:37:43.743Z,38.64
2023-02-28T08:40:11.944Z,37.00
2023-02-28T08:42:39.323Z,37.17
2023-02-28T08:45:07.490Z,39.76
2023-02-28T08:47:35.319Z,37.84
2023-02-28T08:50:02.736Z,37.93
2023-02-28T08:52:30.632Z,38.00
2023-02-28T08:54:57.982Z,39.91
2023-02-28T08:57:27.285Z,37.30
2023-02-28T08:59:55.114Z,38.55
2023-02-28T09:02:22.547Z,38.95
2023-02-28T09:04:50.123Z,39.05
2023-02-28T09:07:17.841Z,38.77
2023-02-28T09:09:55.142Z,38.37
2023-02-28T09:12:24.411Z,38.06
2023-02-28T09:14:52.628Z,39.59
2023-02-28T09:17:20.633Z,40.68
2023-02-28T09:19:51.407Z,39.28
2023-02-28T09:22:19.042Z,37.67
2023-02-28T09:24:46.443Z,38.86
2023-02-28T09:27:14.409Z,36.41
2023-02-28T09:29:41.970Z,35.62
2023-02-28T09:32:09.785Z,37.75
2023-02-28T09:34:38.356Z,38.79
2023-02-28T09:37:05.804Z,37.15
2023-02-28T09:39:33.243Z,35.80
2023-02-28T09:42:03.069Z,36.98
2023-02-28T09:44:36.625Z,37.36
2023-02-28T09:47:20.227Z,38.45
2023-02-28T09:49:50.246Z,39.08
2023-02-28T09:52:20.599Z,36.57
2023-02-28T09:54:48.395Z,38.14
2023-02-28T09:57:22.581Z,36.97
2023-02-28T10:00:02.423Z,35.60
2023-02-28T10:03:02.449Z,34.86
2023-02-28T10:05:35.508Z,36.58
2023-02-28T10:08:17.144Z,37.03
2023-02-28T10:10:50.605Z,36.28
2023-02-28T10:13:26.570Z,37.12
2023-02-28T10:16:02.326Z,38.07
2023-02-28T10:18:39.672Z,38.10
2023-02-28T10:21:09.903Z,38.53
2023-02-28T10:23:38.541Z,36.54
2023-02-28T10:26:18.107Z,38.97
2023-02-28T10:28:46.021Z,37.23
2023-02-28T10:31:17.872Z,37.66
2023-02-28T10:33:46.419Z,37.11
2023-02-28T10:36:19.879Z,36.53
2023-02-28T10:38:48.525Z,37.91
2023-02-28T10:41:29.862Z,42.39
2023-02-28T10:44:30.297Z,37.38
2023-02-28T10:46:57.835Z,37.87
2023-02-28T10:49:28.322Z,38.96
2023-02-28T10:52:01.138Z,38.55
2023-02-28T10:54:38.798Z,38.44
2023-02-28T10:57:10.353Z,38.26
2023-02-28T10:59:38.379Z,39.00
2023-02-28T11:02:36.052Z,38.63
2023-02-28T11:05:25.147Z,39.56
2023-02-28T11:07:55.121Z,37.18
2023-02-28T11:10:28.998Z,37.69
2023-02-28T11:13:02.696Z,37.80
2023-02-28T11:16:04.773Z,38.42
2023-02-28T11:18:48.910Z,38.75
2023-02-28T11:21:21.648Z,36.38
2023-02-28T11:23:49.997Z,34.78
2023-02-28T11:26:42.237Z,36.07
2023-02-28T11:32:20.341Z,37.39
2023-02-28T11:35:12.400Z,37.00
2023-02-28T11:37:58.741Z,36.76
2023-02-28T11:41:04.495Z,37.34
2023-02-28T11:43:56.050Z,37.24
2023-02-28T11:46:57.055Z,37.82
2023-02-28T11:52:47.955Z,37.17
2023-02-28T11:56:01.500Z,36.95
2023-02-28T11:58:40.736Z,36.64
2023-02-28T12:01:16.409Z,37.31
2023-02-28T12:04:01.749Z,36.08
2023-02-28T12:07:00.336Z,36.63
2023-02-28T12:09:48.113Z,36.95
2023-02-28T12:12:43.781Z,36.17
2023-02-28T12:15:46.942Z,36.07
2023-02-28T12:18:51.645Z,37.50
2023-02-28T12:21:25.849Z,36.75
2023-02-28T12:23:59.249Z,36.18
2023-02-28T12:26:39.885Z,37.04
2023-02-28T12:29:29.740Z,34.85
2023-02-28T12:32:27.161Z,34.81
2023-02-28T12:35:09.775Z,35.85
2023-02-28T12:37:46.858Z,35.91
2023-02-28T12:40:18.749Z,36.95
2023-02-28T12:42:50.674Z,36.24
2023-02-28T12:45:24.562Z,36.02
2023-02-28T12:47:58.827Z,35.83
2023-02-28T12:50:27.343Z,36.10
2023-02-28T12:53:25.330Z,37.86
2023-02-28T12:55:58.797Z,37.41
2023-02-28T12:59:15.958Z,37.05
2023-02-28T13:01:55.694Z,38.39
2023-02-28T13:04:51.167Z,36.83
2023-02-28T13:07:34.196Z,36.16
2023-02-28T13:20:21.467Z,39.08
2023-02-28T13:25:34.184Z,37.17
2023-02-28T13:35:00.736Z,35.17
2023-02-28T13:37:31.539Z,35.17
2023-02-28T13:40:11.104Z,36.46
2023-02-28T13:42:57.055Z,36.14
2023-02-28T13:45:25.825Z,36.14
2023-02-28T13:47:56.485Z,37.81
2023-02-28T13:50:26.934Z,37.57
2023-02-28T13:53:14.325Z,37.00
2023-02-28T13:56:04.686Z,36.87
2023-02-28T13:59:14.335Z,39.18
2023-02-28T14:02:00.860Z,37.77
2023-02-28T14:04:51.646Z,38.52
2023-02-28T14:10:09.471Z,37.96
2023-02-28T14:13:12.146Z,37.96
2023-02-28T14:15:42.723Z,38.12
2023-02-28T14:18:22.683Z,38.87
2023-02-28T14:20:55.049Z,38.59
2023-02-28T14:24:14.183Z,37.88
2023-02-28T14:27:07.311Z,37.56
2023-02-28T14:30:00.624Z,38.63
2023-02-28T14:33:09.547Z,38.39
2023-02-28T14:38:53.150Z,39.98
2023-02-28T14:41:30.084Z,39.53
2023-02-28T14:46:41.416Z,38.46
2023-02-28T14:49:22.245Z,38.50
2023-02-28T14:57:02.147Z,38.80
2023-02-28T15:03:40.559Z,37.91
2023-02-28T15:10:25.657Z,36.30
2023-02-28T15:13:46.170Z,37.91
2023-02-28T15:19:50.337Z,38.98
2023-02-28T15:47:28.552Z,38.31
2023-02-28T16:09:57.386Z,39.17
2023-02-28T16:15:45.856Z,39.88
2023-02-28T16:19:56.673Z,40.51
2023-02-28T16:36:50.288Z,41.39
2023-02-28T16:43:37.301Z,40.96
2023-02-28T16:46:06.581Z,40.96
2023-02-28T16:48:34.208Z,41.13
2023-02-28T16:51:01.716Z,41.21
2023-02-28T16:53:29.460Z,41.24
2023-02-28T16:55:56.981Z,43.00
2023-02-28T16:58:26.606Z,41.64
2023-02-28T17:00:54.488Z,43.26
2023-02-28T17:03:32.750Z,42.62
2023-02-28T17:06:01.562Z,42.40
2023-02-28T17:08:30.438Z,42.35
2023-02-28T17:10:57.956Z,42.46
2023-02-28T17:13:25.832Z,42.28
2023-02-28T17:15:53.474Z,42.19
2023-02-28T17:18:22.282Z,41.95
2023-02-28T17:20:50.470Z,42.37
2023-02-28T17:23:18.154Z,42.81
2023-02-28T17:25:57.506Z,42.54
2023-02-28T17:28:25.896Z,43.22
2023-02-28T17:30:53.513Z,42.12
2023-02-28T17:33:21.152Z,41.94
2023-02-28T17:35:48.996Z,43.12
2023-02-28T17:38:18.419Z,42.65
2023-02-28T17:40:46.032Z,42.51
2023-02-28T17:43:13.971Z,43.06
2023-02-28T17:45:42.132Z,42.54
2023-02-28T17:48:11.581Z,42.20
2023-02-28T17:50:39.327Z,42.75
2023-02-28T17:53:06.778Z,44.05
2023-02-28T17:55:35.468Z,43.46
2023-02-28T17:58:04.334Z,43.22
2023-02-28T18:00:34.511Z,43.47
2023-02-28T18:03:02.420Z,44.17
2023-02-28T18:05:30.287Z,44.55
2023-02-28T18:07:57.757Z,43.70
2023-02-28T18:10:25.731Z,44.50
2023-02-28T18:12:53.196Z,43.81
2023-02-28T18:15:22.246Z,43.57
2023-02-28T18:17:50.745Z,44.08
2023-02-28T18:20:19.123Z,44.05
2023-02-28T18:22:47.659Z,44.75
2023-02-28T18:25:17.228Z,43.87
2023-02-28T18:27:54.316Z,43.84
2023-02-28T18:30:22.985Z,43.90
2023-02-28T18:32:50.465Z,43.84
2023-02-28T18:35:34.778Z,44.41
2023-02-28T18:38:15.199Z,43.83
2023-02-28T18:40:43.514Z,43.45
2023-02-28T18:43:11.338Z,44.21
2023-02-28T18:45:39.239Z,44.10
2023-02-28T18:48:06.648Z,44.81
2023-02-28T18:50:34.412Z,44.13
2023-02-28T18:53:03.405Z,44.20
2023-02-28T18:55:34.243Z,44.32
2023-02-28T18:58:02.364Z,44.32
2023-02-28T19:01:00.683Z,43.01
2023-02-28T19:05:15.199Z,43.77
2023-02-28T19:20:30.860Z,43.85
2023-02-28T19:23:00.582Z,44.29
2023-02-28T19:25:29.601Z,44.42
2023-02-28T19:34:39.307Z,43.61
2023-02-28T19:41:04.574Z,43.77
2023-02-28T19:43:34.915Z,43.77
2023-02-28T19:46:03.320Z,44.81
2023-02-28T20:07:59.511Z,43.75
2023-02-28T20:13:28.085Z,43.98
2023-02-28T20:17:43.142Z,44.72
2023-02-28T20:20:11.787Z,45.06
2023-02-28T20:22:39.719Z,44.69
2023-02-28T20:25:08.182Z,44.56
2023-02-28T20:27:36.079Z,44.42
2023-02-28T20:30:04.837Z,44.74
2023-02-28T20:32:33.258Z,44.37
2023-02-28T20:35:01.081Z,44.33
2023-02-28T20:37:28.872Z,45.02
2023-02-28T20:39:56.323Z,45.72
2023-02-28T20:42:24.236Z,45.53
2023-02-28T20:44:51.623Z,45.91
2023-02-28T20:47:19.110Z,45.58
2023-02-28T20:49:46.788Z,45.29
2023-02-28T20:52:14.195Z,45.40
2023-02-28T20:54:41.675Z,45.72
2023-02-28T20:57:09.504Z,45.78
2023-02-28T20:59:38.867Z,45.69
2023-02-28T21:02:07.099Z,45.95
2023-02-28T21:04:34.873Z,45.63
2023-02-28T21:07:02.327Z,45.85
2023-02-28T21:09:29.870Z,46.24
2023-02-28T21:11:57.603Z,46.45
2023-02-28T21:14:26.077Z,46.19
2023-02-28T21:16:53.548Z,45.94
2023-02-28T21:19:21.889Z,45.95
2023-02-28T21:21:49.560Z,46.37
2023-02-28T21:24:19.301Z,46.70
2023-02-28T21:26:47.793Z,46.24
2023-02-28T21:29:16.033Z,46.15
2023-02-28T21:31:43.489Z,46.38
2023-02-28T21:34:12.187Z,46.67
2023-02-28T21:36:42.760Z,46.38
2023-02-28T21:39:25.558Z,46.07
2023-02-28T21:41:53.932Z,46.58
2023-02-28T21:44:23.017Z,46.46
2023-02-28T21:46:55.209Z,46.44
2023-02-28T21:49:23.289Z,46.20
2023-02-28T21:51:50.657Z,45.98
2023-02-28T21:54:18.374Z,45.83
2023-02-28T21:56:46.285Z,45.59
2023-02-28T21:59:13.747Z,45.98
2023-02-28T22:01:44.221Z,45.71
2023-02-28T22:04:21.196Z,45.42
2023-02-28T22:06:53.766Z,45.37
2023-02-28T22:09:21.660Z,44.87
2023-02-28T22:11:49.537Z,45.45
2023-02-28T22:14:17.344Z,45.79
2023-02-28T22:16:51.920Z,45.90
2023-02-28T22:19:21.194Z,45.79
2023-02-28T22:21:50.337Z,45.46
2023-02-28T22:24:20.901Z,45.40
2023-02-28T22:26:50.554Z,45.51
2023-02-28T22:29:18.093Z,46.16
2023-02-28T22:31:45.744Z,45.15
2023-02-28T22:34:13.744Z,44.75
2023-02-28T22:36:42.259Z,44.31
2023-02-28T22:39:10.814Z,44.26
2023-02-28T22:41:39.666Z,44.91
2023-02-28T22:44:07.684Z,45.10
2023-02-28T22:46:36.315Z,45.47
2023-02-28T22:49:05.407Z,45.85
2023-02-28T22:51:33.242Z,46.37
2023-02-28T22:54:00.853Z,46.91
2023-02-28T22:56:30.321Z,46.64
2023-02-28T22:58:59.859Z,46.38
2023-02-28T23:01:30.831Z,46.95
2023-02-28T23:03:58.951Z,46.97
2023-02-28T23:06:32.544Z,46.00
2023-02-28T23:09:03.602Z,45.90
2023-02-28T23:11:37.115Z,46.70
2023-02-28T23:14:05.775Z,46.57
2023-02-28T23:16:40.929Z,46.12
2023-02-28T23:19:12.216Z,46.05
2023-02-28T23:21:40.336Z,45.29
2023-02-28T23:24:11.886Z,45.72
2023-02-28T23:26:43.800Z,46.46
2023-02-28T23:29:12.679Z,46.86
2023-02-28T23:31:40.987Z,46.91
2023-02-28T23:34:09.454Z,46.86
2023-02-28T23:36:39.133Z,47.44
2023-02-28T23:39:06.966Z,47.36
2023-02-28T23:41:34.574Z,47.50
2023-02-28T23:44:02.317Z,47.24
2023-02-28T23:46:30.387Z,46.77
2023-02-28T23:48:59.097Z,46.82
2023-02-28T23:51:26.595Z,46.91
2023-02-28T23:53:54.433Z,47.55
2023-02-28T23:56:23.705Z,47.30
2023-02-28T23:58:52.070Z,46.56
